Time;durP1;ratioP1;P1;durP2;ratioP2;P2;SDS_P1;SDS_P2;PMS_P1;PMS_P2;Temp;Humidity;BMP_temperature;BMP_pressure;BME280_temperature;BME280_humidity;BME280_pressure;Samples;Min_cycle;Max_cycle;Signal;HPM_P1;HPM_P2
2023/07/08 00:03:30;;;;;;;;;;;;;;;;;;5090942;27;19912;-67
2023/07/08 00:08:21;;;;;;;;;;;;;;;;;;5112448;27;20364;-67
2023/07/08 00:15:08;;;;;;;;;;;;;;;;;;5112426;27;20360;-67
2023/07/08 00:25:46;;;;;;;;;;;;;;;;;;5111395;27;19922;-67
2023/07/08 00:28:12;;;;;;;;;;;;;;;;;;5111295;28;20352;-67
2023/07/08 00:30:38;;;;;;;;;;;;;;;;;;5109962;28;19909;-68
2023/07/08 00:35:44;;;;;;;;;;;;;;;;;;5091697;27;19919;-69
2023/07/08 00:38:12;;;;;;;;;;;;;;;;;;5091059;28;19999;-67
2023/07/08 00:40:38;;;;;;;;;;;;;;;;;;5091246;28;19909;-67
2023/07/08 00:43:04;;;;;;;;;;;;;;;;;;5091326;28;20271;-68
2023/07/08 00:48:04;;;;;;;;;;;;;;;;;;5112467;27;19916;-66
2023/07/08 00:50:31;;;;;;;;;;;;;;;;;;5112350;28;20320;-66
2023/07/08 00:53:38;;;;;;;;;;;;;;;;;;5152499;27;20346;-68
2023/07/08 00:56:04;;;;;;;;;;;;;;;;;;5152982;27;20005;-68
2023/07/08 01:00:46;;;;;;;;;;;;;;;;;;5111391;27;19916;-67
2023/07/08 01:03:43;;;;;;;;;;;;;;;;;;5112147;27;19922;-69
2023/07/08 01:07:04;;;;;;;;;;;;;;;;;;5111688;27;19938;-67
2023/07/08 01:11:48;;;;;;;;;;;;;;;;;;5153212;27;20010;-67
2023/07/08 01:14:14;;;;;;;;;;;;;;;;;;5152441;27;19926;-68
2023/07/08 01:16:40;;;;;;;;;;;;;;;;;;5152881;27;19994;-68
2023/07/08 01:19:32;;;;;;;;;;;;;;;;;;5091636;27;19923;-68
2023/07/08 01:22:01;;;;;;;;;;;;;;;;;;5089627;28;19912;-68
2023/07/08 01:25:03;;;;;;;;;;;;;;;;;;5153178;27;19916;-69
2023/07/08 01:27:29;;;;;;;;;;;;;;;;;;5152645;27;20359;-66
2023/07/08 01:29:55;;;;;;;;;;;;;;;;;;5134326;27;19911;-68
2023/07/08 01:32:42;;;;;;;;;;;;;;;;;;5112473;27;20284;-67
2023/07/08 01:35:08;;;;;;;;;;;;;;;;;;5111386;28;20010;-67
2023/07/08 01:37:34;;;;;;;;;;;;;;;;;;5111639;28;20318;-68
2023/07/08 01:40:33;;;;;;;;;;;;;;;;;;5152852;27;20010;-68
2023/07/08 01:42:59;;;;;;;;;;;;;;;;;;5152516;27;19946;-69
2023/07/08 01:47:05;;;;;;;;;;;;;;;;;;5091475;27;19923;-67
2023/07/08 01:51:07;;;;;;;;;;;;;;;;;;5091307;27;19954;-67
2023/07/08 01:55:22;;;;;;;;;;;;;;;;;;5152767;27;19919;-67
2023/07/08 02:00:54;;;;;;;;;;;;;;;;;;5112272;27;19998;-69
2023/07/08 02:03:40;;;;;;;;;;;;;;;;;;5111558;27;19912;-67
2023/07/08 02:06:06;;;;;;;;;;;;;;;;;;5110405;28;20448;-67
2023/07/08 02:08:32;;;;;;;;;;;;;;;;;;5111614;28;19969;-67
2023/07/08 02:12:51;;;;;;;;;;;;;;;;;;5091892;27;19916;-67
2023/07/08 02:15:17;;;;;;;;;;;;;;;;;;5091399;28;20432;-67
2023/07/08 02:17:43;;;;;;;;;;;;;;;;;;5090876;28;19954;-68
2023/07/08 02:26:42;;;;;;;;;;;;;;;;;;5112577;27;19916;-67
2023/07/08 02:29:08;;;;;;;;;;;;;;;;;;5110412;28;20335;-67
2023/07/08 02:31:33;;;;;;;;;;;;;;;;;;5111256;28;19908;-67
2023/07/08 02:34:01;;;;;;;;;;;;;;;;;;5110389;28;19912;-66
2023/07/08 02:43:06;;;;;;;;;;;;;;;;;;5112304;27;19922;-67
2023/07/08 02:45:32;;;;;;;;;;;;;;;;;;5110070;28;19912;-67
2023/07/08 02:49:52;;;;;;;;;;;;;;;;;;5111750;27;19912;-67
2023/07/08 02:52:18;;;;;;;;;;;;;;;;;;5111310;28;19912;-67
2023/07/08 02:54:44;;;;;;;;;;;;;;;;;;5111683;28;20302;-67
2023/07/08 02:59:24;;;;;;;;;;;;;;;;;;5111386;27;19912;-67
2023/07/08 03:01:50;;;;;;;;;;;;;;;;;;5111805;28;20390;-67
2023/07/08 03:12:16;;;;;;;;;;;;;;;;;;5092212;27;19916;-67
2023/07/08 03:14:43;;;;;;;;;;;;;;;;;;5090347;28;19912;-67
2023/07/08 03:17:09;;;;;;;;;;;;;;;;;;5091379;28;19908;-68
2023/07/08 03:19:34;;;;;;;;;;;;;;;;;;5091026;28;20364;-67
2023/07/08 03:26:21;;;;;;;;;;;;;;;;;;5091415;28;19922;-66
2023/07/08 03:28:47;;;;;;;;;;;;;;;;;;5091231;28;20010;-67
2023/07/08 03:33:49;;;;;;;;;;;;;;;;;;5112029;27;20298;-67
2023/07/08 03:36:22;;;;;;;;;;;;;;;;;;5111841;28;20002;-67
2023/07/08 03:40:09;;;;;;;;;;;;;;;;;;5112186;27;20291;-66
2023/07/08 03:44:30;;;;;;;;;;;;;;;;;;5111823;27;19916;-66
2023/07/08 03:46:56;;;;;;;;;;;;;;;;;;5111817;28;20427;-66
2023/07/08 03:50:53;;;;;;;;;;;;;;;;;;5112557;27;20288;-66
2023/07/08 03:53:19;;;;;;;;;;;;;;;;;;5111737;28;19999;-68
2023/07/08 03:57:43;;;;;;;;;;;;;;;;;;5112440;27;20398;-66
2023/07/08 04:00:09;;;;;;;;;;;;;;;;;;5112013;28;19912;-67
2023/07/08 04:03:47;;;;;;;;;;;;;;;;;;5091042;27;19916;-66
2023/07/08 04:07:07;;;;;;;;;;;;;;;;;;5112319;27;20391;-66
2023/07/08 04:13:36;;;;;;;;;;;;;;;;;;5112222;27;19916;-66
2023/07/08 04:16:02;;;;;;;;;;;;;;;;;;5111319;28;20010;-68
2023/07/08 04:19:24;;;;;;;;;;;;;;;;;;5091724;27;19917;-67
2023/07/08 04:24:17;;;;;;;;;;;;;;;;;;5111623;27;19916;-66
2023/07/08 04:26:46;;;;;;;;;;;;;;;;;;5111812;28;19994;-68
2023/07/08 04:33:02;;;;;;;;;;;;;;;;;;5112507;27;19934;-66
2023/07/08 04:38:24;;;;;;;;;;;;;;;;;;5111605;27;19916;-67
2023/07/08 04:43:06;;;;;;;;;;;;;;;;;;5112372;27;19916;-67
2023/07/08 04:45:32;;;;;;;;;;;;;;;;;;5111362;28;19912;-67
2023/07/08 04:47:58;;;;;;;;;;;;;;;;;;5111724;28;20029;-67
2023/07/08 04:50:54;;;;;;;;;;;;;;;;;;5112043;27;19916;-66
2023/07/08 04:53:53;;;;;;;;;;;;;;;;;;5112327;27;20272;-69
2023/07/08 04:56:19;;;;;;;;;;;;;;;;;;5111743;28;20003;-67
2023/07/08 05:03:07;;;;;;;;;;;;;;;;;;5092248;27;19916;-68
2023/07/08 05:05:32;;;;;;;;;;;;;;;;;;5089704;28;20010;-67
2023/07/08 05:07:58;;;;;;;;;;;;;;;;;;5091425;28;20376;-68
2023/07/08 05:10:44;;;;;;;;;;;;;;;;;;5071625;28;19923;-68
2023/07/08 05:13:10;;;;;;;;;;;;;;;;;;5070755;28;19917;-68
2023/07/08 05:20:51;;;;;;;;;;;;;;;;;;5111342;27;19922;-68
2023/07/08 05:23:17;;;;;;;;;;;;;;;;;;5111913;28;19965;-68
2023/07/08 05:27:59;;;;;;;;;;;;;;;;;;5078936;27;2677140;-67
2023/07/08 05:30:25;;;;;;;;;;;;;;;;;;5155043;27;19918;-67
2023/07/08 05:32:51;;;;;;;;;;;;;;;;;;5173745;27;19914;-67
2023/07/08 05:38:53;;;;;;;;;;;;;;;;;;5111950;27;19916;-68
2023/07/08 05:42:37;;;;;;;;;;;;;;;;;;5092328;27;19917;-68
2023/07/08 05:45:03;;;;;;;;;;;;;;;;;;5091436;28;20003;-68
2023/07/08 05:47:29;;;;;;;;;;;;;;;;;;5091123;28;20360;-68
2023/07/08 05:55:48;;;;;;;;;;;;;;;;;;5111589;27;19916;-68
2023/07/08 06:02:09;;;;;;;;;;;;;;;;;;5111781;27;19923;-67
2023/07/08 06:08:44;;;;;;;;;;;;;;;;;;5091217;27;19942;-67
2023/07/08 06:14:44;;;;;;;;;;;;;;;;;;5111881;27;20298;-69
2023/07/08 06:19:34;;;;;;;;;;;;;;;;;;5091938;27;19917;-67
2023/07/08 06:22:00;;;;;;;;;;;;;;;;;;5091258;28;20019;-67
2023/07/08 06:24:26;;;;;;;;;;;;;;;;;;5089564;28;19908;-66
2023/07/08 06:26:52;;;;;;;;;;;;;;;;;;5091293;28;19956;-67
2023/07/08 06:29:42;;;;;;;;;;;;;;;;;;5111589;27;20384;-66
2023/07/08 06:36:25;;;;;;;;;;;;;;;;;;5112195;27;19916;-68
2023/07/08 06:38:51;;;;;;;;;;;;;;;;;;5111704;28;20347;-67
2023/07/08 06:45:19;;;;;;;;;;;;;;;;;;5111463;27;19922;-68
2023/07/08 06:49:03;;;;;;;;;;;;;;;;;;5112051;27;19916;-69
2023/07/08 06:51:29;;;;;;;;;;;;;;;;;;5111336;28;19918;-69
2023/07/08 06:53:55;;;;;;;;;;;;;;;;;;5111655;28;19912;-67
2023/07/08 06:56:21;;;;;;;;;;;;;;;;;;5111621;28;19915;-68
2023/07/08 06:58:47;;;;;;;;;;;;;;;;;;5109914;28;19912;-68
2023/07/08 07:01:47;;;;;;;;;;;;;;;;;;5112451;27;19912;-68
2023/07/08 07:04:13;;;;;;;;;;;;;;;;;;5111734;28;19919;-68
2023/07/08 07:06:38;;;;;;;;;;;;;;;;;;5111340;28;20291;-67
2023/07/08 07:10:51;;;;;;;;;;;;;;;;;;5091868;27;19917;-68
2023/07/08 07:15:16;;;;;;;;;;;;;;;;;;5112271;27;19915;-68
2023/07/08 07:17:42;;;;;;;;;;;;;;;;;;5110474;28;20447;-67
2023/07/08 07:20:08;;;;;;;;;;;;;;;;;;5111310;28;19908;-68
2023/07/08 07:22:34;;;;;;;;;;;;;;;;;;5111995;28;20364;-67
2023/07/08 07:25:00;;;;;;;;;;;;;;;;;;5110209;28;20279;-68
2023/07/08 07:27:26;;;;;;;;;;;;;;;;;;5111103;28;19912;-68
2023/07/08 07:31:43;;;;;;;;;;;;;;;;;;5112557;27;19919;-66
2023/07/08 07:34:27;;;;;;;;;;;;;;;;;;5111513;27;19916;-67
2023/07/08 07:37:55;;;;;;;;;;;;;;;;;;5091866;27;19919;-66
2023/07/08 07:40:21;;;;;;;;;;;;;;;;;;5090929;28;20003;-67
2023/07/08 07:42:47;;;;;;;;;;;;;;;;;;5091325;28;19969;-68
2023/07/08 07:45:13;;;;;;;;;;;;;;;;;;5091318;28;19995;-67
2023/07/08 07:47:39;;;;;;;;;;;;;;;;;;5090819;28;20326;-68
2023/07/08 07:52:38;;;;;;;;;;;;;;;;;;5091859;28;19912;-67
2023/07/08 07:55:04;;;;;;;;;;;;;;;;;;5091028;28;19919;-67
2023/07/08 07:57:30;;;;;;;;;;;;;;;;;;5090421;28;19908;-67
2023/07/08 07:59:56;;;;;;;;;;;;;;;;;;5089942;28;20011;-68
2023/07/08 08:03:52;;;;;;;;;;;;;;;;;;5112618;27;19916;-68
2023/07/08 08:08:22;;;;;;;;;;;;;;;;;;5091433;27;19912;-68
2023/07/08 08:10:48;;;;;;;;;;;;;;;;;;5091372;28;19912;-69
2023/07/08 08:15:08;;;;;;;;;;;;;;;;;;5152588;27;20010;-68
2023/07/08 08:17:34;;;;;;;;;;;;;;;;;;5153203;27;19912;-68
2023/07/08 08:20:00;;;;;;;;;;;;;;;;;;5152903;27;19914;-68
2023/07/08 08:23:27;;;;;;;;;;;;;;;;;;5111512;27;19916;-68
2023/07/08 08:25:53;;;;;;;;;;;;;;;;;;5111811;28;19918;-67
2023/07/08 08:28:19;;;;;;;;;;;;;;;;;;5111745;28;19961;-68
2023/07/08 08:32:14;;;;;;;;;;;;;;;;;;5112193;27;20286;-67
2023/07/08 08:34:40;;;;;;;;;;;;;;;;;;5110434;28;19918;-67
2023/07/08 08:37:06;;;;;;;;;;;;;;;;;;5111288;28;19908;-69
2023/07/08 08:45:33;;;;;;;;;;;;;;;;;;5092254;27;19912;-67
2023/07/08 08:47:59;;;;;;;;;;;;;;;;;;5090069;28;19916;-67
2023/07/08 08:50:25;;;;;;;;;;;;;;;;;;5089648;28;19908;-69
2023/07/08 08:52:51;;;;;;;;;;;;;;;;;;5091298;28;19916;-68
2023/07/08 08:55:16;;;;;;;;;;;;;;;;;;5091253;28;19908;-68
2023/07/08 08:57:43;;;;;;;;;;;;;;;;;;5090996;28;19961;-68
2023/07/08 09:00:09;;;;;;;;;;;;;;;;;;5091186;28;20397;-69
2023/07/08 09:02:35;;;;;;;;;;;;;;;;;;5091151;28;19991;-68
2023/07/08 09:05:01;;;;;;;;;;;;;;;;;;5089479;28;20152;-68
2023/07/08 09:07:27;;;;;;;;;;;;;;;;;;5091019;28;20284;-67
2023/07/08 09:09:53;;;;;;;;;;;;;;;;;;5089677;28;19952;-67
2023/07/08 09:12:19;;;;;;;;;;;;;;;;;;5090449;28;19917;-68
2023/07/08 09:14:45;;;;;;;;;;;;;;;;;;5089608;28;19915;-68
2023/07/08 09:17:11;;;;;;;;;;;;;;;;;;5090855;28;19912;-68
2023/07/08 09:19:37;;;;;;;;;;;;;;;;;;5090383;28;19978;-68
2023/07/08 09:22:03;;;;;;;;;;;;;;;;;;5090715;28;19914;-67
2023/07/08 09:24:29;;;;;;;;;;;;;;;;;;5090704;28;19924;-67
2023/07/08 09:26:58;;;;;;;;;;;;;;;;;;5090198;28;19909;-67
2023/07/08 09:29:24;;;;;;;;;;;;;;;;;;5089385;28;19908;-68
2023/07/08 09:33:44;;;;;;;;;;;;;;;;;;5173545;27;20347;-66
2023/07/08 09:36:10;;;;;;;;;;;;;;;;;;5155134;27;19947;-68
2023/07/08 09:38:36;;;;;;;;;;;;;;;;;;5174079;27;20374;-68
2023/07/08 09:41:02;;;;;;;;;;;;;;;;;;5154640;27;19994;-68
2023/07/08 09:43:30;;;;;;;;;;;;;;;;;;5154991;27;19907;-68
2023/07/08 09:45:56;;;;;;;;;;;;;;;;;;5155155;27;19997;-68
2023/07/08 09:48:21;;;;;;;;;;;;;;;;;;5154611;27;20329;-68
2023/07/08 09:50:47;;;;;;;;;;;;;;;;;;5173453;27;19907;-68
2023/07/08 09:53:13;;;;;;;;;;;;;;;;;;5172963;27;19976;-68
2023/07/08 09:55:39;;;;;;;;;;;;;;;;;;5154779;27;20366;-67
2023/07/08 09:59:58;;;;;;;;;;;;;;;;;;5091614;27;19912;-67
2023/07/08 10:02:24;;;;;;;;;;;;;;;;;;5091024;28;19913;-67
2023/07/08 10:04:50;;;;;;;;;;;;;;;;;;5090066;28;19909;-68
2023/07/08 10:07:16;;;;;;;;;;;;;;;;;;5091023;28;19918;-68
2023/07/08 10:09:42;;;;;;;;;;;;;;;;;;5091310;28;19908;-68
2023/07/08 10:12:09;;;;;;;;;;;;;;;;;;5091237;28;20003;-68
2023/07/08 10:14:35;;;;;;;;;;;;;;;;;;5090745;28;19931;-68
2023/07/08 10:17:01;;;;;;;;;;;;;;;;;;5091135;28;20372;-68
2023/07/08 10:19:27;;;;;;;;;;;;;;;;;;5089808;28;19923;-68
2023/07/08 10:21:53;;;;;;;;;;;;;;;;;;5090638;28;19913;-68
2023/07/08 10:24:19;;;;;;;;;;;;;;;;;;5090936;28;19915;-68
2023/07/08 10:26:45;;;;;;;;;;;;;;;;;;5090973;28;20003;-68
2023/07/08 10:29:11;;;;;;;;;;;;;;;;;;5090465;28;19909;-68
2023/07/08 10:31:37;;;;;;;;;;;;;;;;;;5090943;28;19909;-68
2023/07/08 10:34:03;;;;;;;;;;;;;;;;;;5089589;28;19991;-68
2023/07/08 10:36:29;;;;;;;;;;;;;;;;;;5089058;28;19909;-68
2023/07/08 10:38:55;;;;;;;;;;;;;;;;;;5089450;28;20341;-68
2023/07/08 10:41:21;;;;;;;;;;;;;;;;;;5090660;28;19908;-69
2023/07/08 10:44:11;;;;;;;;;;;;;;;;;;5111418;27;19922;-67
2023/07/08 10:46:37;;;;;;;;;;;;;;;;;;5111745;28;19912;-68
2023/07/08 10:49:03;;;;;;;;;;;;;;;;;;5110358;28;19969;-67
2023/07/08 10:51:29;;;;;;;;;;;;;;;;;;5111346;28;19915;-68
2023/07/08 10:53:56;;;;;;;;;;;;;;;;;;5111663;28;19915;-68
2023/07/08 10:56:22;;;;;;;;;;;;;;;;;;5110381;28;20390;-68
2023/07/08 10:58:48;;;;;;;;;;;;;;;;;;5109823;28;20325;-68
2023/07/08 11:02:18;;;;;;;;;;;;;;;;;;5174403;27;19911;-67
2023/07/08 11:04:44;;;;;;;;;;;;;;;;;;5154788;27;19997;-68
2023/07/08 11:07:10;;;;;;;;;;;;;;;;;;5155055;27;19959;-68
2023/07/08 11:09:36;;;;;;;;;;;;;;;;;;5155059;27;20001;-67
2023/07/08 11:12:02;;;;;;;;;;;;;;;;;;5154600;27;19914;-67
2023/07/08 11:14:29;;;;;;;;;;;;;;;;;;5173658;27;19963;-67
2023/07/08 11:16:55;;;;;;;;;;;;;;;;;;5154905;27;19907;-68
2023/07/08 11:19:21;;;;;;;;;;;;;;;;;;5154458;27;20005;-66
2023/07/08 11:21:47;;;;;;;;;;;;;;;;;;5173443;27;19915;-69
2023/07/08 11:24:13;;;;;;;;;;;;;;;;;;5173344;27;19907;-67
2023/07/08 11:26:39;;;;;;;;;;;;;;;;;;5172966;27;19907;-67
2023/07/08 11:29:05;;;;;;;;;;;;;;;;;;5154616;27;20370;-68
2023/07/08 11:31:31;;;;;;;;;;;;;;;;;;5173346;27;19967;-67
2023/07/08 11:33:57;;;;;;;;;;;;;;;;;;5172872;27;19930;-67
2023/07/08 11:36:23;;;;;;;;;;;;;;;;;;5173251;27;19907;-67
2023/07/08 11:38:49;;;;;;;;;;;;;;;;;;5172729;27;19907;-68
2023/07/08 11:41:15;;;;;;;;;;;;;;;;;;5173062;27;19983;-68
2023/07/08 11:43:41;;;;;;;;;;;;;;;;;;5173313;27;20274;-68
2023/07/08 11:46:07;;;;;;;;;;;;;;;;;;5153914;27;19907;-69
2023/07/08 11:48:33;;;;;;;;;;;;;;;;;;5154276;27;20397;-69
2023/07/08 11:50:59;;;;;;;;;;;;;;;;;;5172866;27;19907;-68
2023/07/08 11:53:25;;;;;;;;;;;;;;;;;;5172499;27;19951;-69
2023/07/08 11:55:51;;;;;;;;;;;;;;;;;;5172837;27;19907;-69
2023/07/08 11:58:17;;;;;;;;;;;;;;;;;;5172808;27;19907;-69
2023/07/08 12:00:43;;;;;;;;;;;;;;;;;;5171906;27;19926;-69
2023/07/08 12:03:09;;;;;;;;;;;;;;;;;;5154029;27;20370;-69
2023/07/08 12:05:35;;;;;;;;;;;;;;;;;;5153961;27;20316;-69
2023/07/08 12:08:01;;;;;;;;;;;;;;;;;;5153559;27;20270;-69
2023/07/08 12:10:27;;;;;;;;;;;;;;;;;;5172584;27;19911;-69
2023/07/08 12:12:53;;;;;;;;;;;;;;;;;;5162851;27;19989;-68
2023/07/08 12:15:19;;;;;;;;;;;;;;;;;;5139499;27;19908;-68
2023/07/08 12:17:45;;;;;;;;;;;;;;;;;;5139886;27;19997;-68
2023/07/08 12:20:12;;;;;;;;;;;;;;;;;;5158307;27;19911;-68
2023/07/08 12:22:38;;;;;;;;;;;;;;;;;;5139353;27;19915;-70
2023/07/08 12:25:05;;;;;;;;;;;;;;;;;;5158325;27;19908;-68
2023/07/08 12:27:31;;;;;;;;;;;;;;;;;;5139742;27;19911;-67
2023/07/08 12:29:57;;;;;;;;;;;;;;;;;;5157666;27;20406;-67
2023/07/08 12:32:25;;;;;;;;;;;;;;;;;;5158137;27;19914;-67
2023/07/08 12:34:51;;;;;;;;;;;;;;;;;;5139499;27;19907;-67
2023/07/08 12:37:17;;;;;;;;;;;;;;;;;;5158168;27;20098;-67
2023/07/08 12:39:43;;;;;;;;;;;;;;;;;;5158092;27;19954;-68
2023/07/08 12:42:09;;;;;;;;;;;;;;;;;;5157610;27;19937;-68
2023/07/08 12:44:37;;;;;;;;;;;;;;;;;;5158213;27;20370;-68
2023/07/08 12:47:03;;;;;;;;;;;;;;;;;;5139369;27;20268;-68
2023/07/08 12:49:29;;;;;;;;;;;;;;;;;;5157584;27;19907;-68
2023/07/08 12:51:55;;;;;;;;;;;;;;;;;;5157861;27;19907;-68
2023/07/08 12:54:22;;;;;;;;;;;;;;;;;;5139132;27;19907;-68
2023/07/08 12:56:48;;;;;;;;;;;;;;;;;;5157467;27;19918;-68
2023/07/08 12:59:13;;;;;;;;;;;;;;;;;;5157840;27;19907;-68
2023/07/08 13:01:39;;;;;;;;;;;;;;;;;;5157371;27;19919;-68
2023/07/08 13:04:05;;;;;;;;;;;;;;;;;;5157184;27;20051;-68
2023/07/08 13:06:31;;;;;;;;;;;;;;;;;;5138882;27;19907;-68
2023/07/08 13:09:00;;;;;;;;;;;;;;;;;;5157446;27;19907;-68
2023/07/08 13:11:25;;;;;;;;;;;;;;;;;;5138511;27;20049;-69
2023/07/08 13:13:52;;;;;;;;;;;;;;;;;;5157430;27;20320;-68
2023/07/08 13:16:18;;;;;;;;;;;;;;;;;;5157349;27;19963;-68
2023/07/08 13:18:44;;;;;;;;;;;;;;;;;;5138286;27;19907;-68
2023/07/08 13:21:10;;;;;;;;;;;;;;;;;;5157294;27;19921;-68
2023/07/08 13:23:36;;;;;;;;;;;;;;;;;;5137822;27;20316;-68
2023/07/08 13:26:02;;;;;;;;;;;;;;;;;;5138029;27;20264;-68
2023/07/08 13:28:28;;;;;;;;;;;;;;;;;;5157299;27;19917;-68
2023/07/08 13:30:54;;;;;;;;;;;;;;;;;;5138506;27;19907;-68
2023/07/08 13:33:20;;;;;;;;;;;;;;;;;;5156651;27;20312;-68
2023/07/08 13:35:46;;;;;;;;;;;;;;;;;;5138588;27;19907;-68
2023/07/08 13:38:12;;;;;;;;;;;;;;;;;;5156668;27;20366;-68
2023/07/08 13:40:38;;;;;;;;;;;;;;;;;;5156849;27;20289;-68
2023/07/08 13:43:04;;;;;;;;;;;;;;;;;;5156835;27;20398;-68
2023/07/08 13:45:30;;;;;;;;;;;;;;;;;;5156314;27;20360;-68
2023/07/08 13:47:56;;;;;;;;;;;;;;;;;;5156679;27;19907;-68
2023/07/08 13:50:21;;;;;;;;;;;;;;;;;;5156831;27;19907;-68
2023/07/08 13:52:47;;;;;;;;;;;;;;;;;;5156426;27;19915;-68
2023/07/08 13:55:13;;;;;;;;;;;;;;;;;;5156580;27;19993;-69
2023/07/08 13:57:39;;;;;;;;;;;;;;;;;;5156541;27;19914;-68
2023/07/08 14:00:07;;;;;;;;;;;;;;;;;;5155696;27;19911;-69
2023/07/08 14:02:33;;;;;;;;;;;;;;;;;;5138064;27;20382;-69
2023/07/08 14:04:59;;;;;;;;;;;;;;;;;;5156563;27;19932;-69
2023/07/08 14:07:25;;;;;;;;;;;;;;;;;;5155932;27;20367;-69
2023/07/08 14:09:52;;;;;;;;;;;;;;;;;;5156262;27;19914;-69
2023/07/08 14:12:18;;;;;;;;;;;;;;;;;;5137769;27;19997;-69
2023/07/08 14:14:44;;;;;;;;;;;;;;;;;;5137234;27;20003;-68
2023/07/08 14:17:10;;;;;;;;;;;;;;;;;;5156145;27;19907;-69
2023/07/08 14:19:36;;;;;;;;;;;;;;;;;;5137507;27;20375;-69
2023/07/08 14:22:02;;;;;;;;;;;;;;;;;;5155629;27;20255;-69
2023/07/08 14:24:28;;;;;;;;;;;;;;;;;;5137503;27;20023;-69
2023/07/08 14:26:54;;;;;;;;;;;;;;;;;;5137434;27;19910;-69
2023/07/08 14:29:19;;;;;;;;;;;;;;;;;;5137024;27;19907;-69
2023/07/08 14:31:45;;;;;;;;;;;;;;;;;;5137391;27;19916;-69
2023/07/08 14:34:11;;;;;;;;;;;;;;;;;;5155869;27;19960;-68
2023/07/08 14:36:37;;;;;;;;;;;;;;;;;;5155249;27;19907;-68
2023/07/08 14:39:03;;;;;;;;;;;;;;;;;;5156172;27;19907;-68
2023/07/08 14:41:29;;;;;;;;;;;;;;;;;;5155222;27;19918;-68
2023/07/08 14:43:55;;;;;;;;;;;;;;;;;;5155776;27;19998;-68
2023/07/08 14:46:21;;;;;;;;;;;;;;;;;;5155728;27;19960;-68
2023/07/08 14:48:47;;;;;;;;;;;;;;;;;;5136762;27;20279;-69
2023/07/08 14:51:13;;;;;;;;;;;;;;;;;;5155626;27;19908;-68
2023/07/08 14:53:39;;;;;;;;;;;;;;;;;;5137107;27;19907;-68
2023/07/08 14:56:05;;;;;;;;;;;;;;;;;;5155280;27;19949;-68
2023/07/08 14:58:31;;;;;;;;;;;;;;;;;;5137072;27;19914;-69
2023/07/08 15:00:57;;;;;;;;;;;;;;;;;;5155394;27;20355;-69
2023/07/08 15:03:23;;;;;;;;;;;;;;;;;;5136676;27;20361;-68
2023/07/08 15:05:49;;;;;;;;;;;;;;;;;;5137100;27;20264;-68
2023/07/08 15:08:14;;;;;;;;;;;;;;;;;;5137062;27;20002;-68
2023/07/08 15:10:40;;;;;;;;;;;;;;;;;;5136465;27;19911;-68
2023/07/08 15:13:09;;;;;;;;;;;;;;;;;;5136821;27;19907;-68
2023/07/08 15:15:35;;;;;;;;;;;;;;;;;;5155461;27;19907;-68
2023/07/08 15:18:04;;;;;;;;;;;;;;;;;;5155029;27;19960;-68
2023/07/08 15:20:30;;;;;;;;;;;;;;;;;;5136722;27;20320;-68
2023/07/08 15:22:56;;;;;;;;;;;;;;;;;;5155508;27;20002;-69
2023/07/08 15:25:22;;;;;;;;;;;;;;;;;;5154965;27;19951;-68
2023/07/08 15:27:48;;;;;;;;;;;;;;;;;;5136772;27;19918;-68
2023/07/08 15:30:14;;;;;;;;;;;;;;;;;;5155279;27;20002;-68
2023/07/08 15:32:40;;;;;;;;;;;;;;;;;;5154882;27;19907;-68
2023/07/08 15:35:06;;;;;;;;;;;;;;;;;;5155291;27;19907;-68
2023/07/08 15:37:32;;;;;;;;;;;;;;;;;;5136694;27;20392;-68
2023/07/08 15:39:58;;;;;;;;;;;;;;;;;;5136278;27;20487;-68
2023/07/08 15:42:24;;;;;;;;;;;;;;;;;;5136608;27;20366;-68
2023/07/08 15:44:52;;;;;;;;;;;;;;;;;;5136562;27;19987;-68
2023/07/08 15:47:18;;;;;;;;;;;;;;;;;;5155726;27;19918;-68
2023/07/08 15:49:44;;;;;;;;;;;;;;;;;;5159036;27;19908;-68
2023/07/08 15:52:10;;;;;;;;;;;;;;;;;;5158614;27;20396;-68
2023/07/08 15:54:36;;;;;;;;;;;;;;;;;;5159011;27;20270;-68
2023/07/08 15:57:06;;;;;;;;;;;;;;;;;;5140321;27;19914;-68
2023/07/08 15:59:32;;;;;;;;;;;;;;;;;;5140013;27;19984;-68
2023/07/08 16:01:58;;;;;;;;;;;;;;;;;;5158712;27;20449;-68
2023/07/08 16:04:24;;;;;;;;;;;;;;;;;;5158822;27;19907;-68
2023/07/08 16:06:50;;;;;;;;;;;;;;;;;;5139681;27;20294;-68
2023/07/08 16:09:16;;;;;;;;;;;;;;;;;;5158713;27;19907;-68
2023/07/08 16:11:42;;;;;;;;;;;;;;;;;;5159109;27;19967;-68
2023/07/08 16:14:08;;;;;;;;;;;;;;;;;;5139610;27;19918;-68
2023/07/08 16:16:34;;;;;;;;;;;;;;;;;;5158551;27;19907;-68
2023/07/08 16:19:00;;;;;;;;;;;;;;;;;;5158505;27;19907;-68
2023/07/08 16:21:25;;;;;;;;;;;;;;;;;;5139387;27;19922;-68
2023/07/08 16:23:51;;;;;;;;;;;;;;;;;;5158465;27;19930;-68
2023/07/08 16:26:17;;;;;;;;;;;;;;;;;;5158397;27;19907;-68
2023/07/08 16:28:43;;;;;;;;;;;;;;;;;;5157868;27;19914;-68
2023/07/08 16:31:09;;;;;;;;;;;;;;;;;;5158234;27;19907;-68
2023/07/08 16:33:35;;;;;;;;;;;;;;;;;;5158198;27;19907;-68
2023/07/08 16:36:01;;;;;;;;;;;;;;;;;;5157754;27;19957;-68
2023/07/08 16:38:27;;;;;;;;;;;;;;;;;;5158135;27;19907;-68
2023/07/08 16:40:53;;;;;;;;;;;;;;;;;;5158018;27;19921;-68
2023/07/08 16:43:19;;;;;;;;;;;;;;;;;;5157643;27;20268;-68
2023/07/08 16:45:45;;;;;;;;;;;;;;;;;;5157998;27;19998;-68
2023/07/08 16:48:11;;;;;;;;;;;;;;;;;;5139301;27;19952;-68
2023/07/08 16:50:37;;;;;;;;;;;;;;;;;;5157516;27;20323;-68
2023/07/08 16:53:03;;;;;;;;;;;;;;;;;;5157991;27;20256;-68
2023/07/08 16:55:29;;;;;;;;;;;;;;;;;;5157386;27;20330;-68
2023/07/08 16:57:55;;;;;;;;;;;;;;;;;;5157665;27;20294;-68
2023/07/08 17:00:20;;;;;;;;;;;;;;;;;;5157546;27;20010;-68
2023/07/08 17:02:47;;;;;;;;;;;;;;;;;;5138729;27;19907;-68
2023/07/08 17:06:54;;;;;;;;;;;;;;;;;;5112037;27;20380;-67
2023/07/08 17:09:20;;;;;;;;;;;;;;;;;;5110471;28;19981;-67
2023/07/08 17:11:46;;;;;;;;;;;;;;;;;;5111310;28;19908;-67
2023/07/08 17:14:11;;;;;;;;;;;;;;;;;;5111616;28;19908;-68
2023/07/08 17:16:37;;;;;;;;;;;;;;;;;;5111233;28;20007;-67
2023/07/08 17:19:03;;;;;;;;;;;;;;;;;;5110269;28;19912;-68
2023/07/08 17:23:49;;;;;;;;;;;;;;;;;;5111920;27;20390;-67
2023/07/08 17:26:14;;;;;;;;;;;;;;;;;;5112404;28;20040;-67
2023/07/08 17:28:40;;;;;;;;;;;;;;;;;;5111813;28;19955;-68
2023/07/08 17:32:13;;;;;;;;;;;;;;;;;;5091187;28;20295;-67
2023/07/08 17:34:39;;;;;;;;;;;;;;;;;;5091361;28;20007;-68
2023/07/08 17:37:05;;;;;;;;;;;;;;;;;;5091180;28;19913;-67
2023/07/08 17:39:31;;;;;;;;;;;;;;;;;;5090871;28;20391;-67
2023/07/08 17:44:12;;;;;;;;;;;;;;;;;;5092307;27;19916;-69
2023/07/08 17:46:38;;;;;;;;;;;;;;;;;;5091104;28;20015;-68
2023/07/08 17:49:05;;;;;;;;;;;;;;;;;;5091378;28;20416;-69
2023/07/08 17:51:34;;;;;;;;;;;;;;;;;;5090056;28;20319;-69
2023/07/08 17:54:00;;;;;;;;;;;;;;;;;;5090052;28;19945;-69
2023/07/08 17:56:26;;;;;;;;;;;;;;;;;;5091287;28;19913;-69
2023/07/08 17:58:52;;;;;;;;;;;;;;;;;;5090758;28;19912;-69
2023/07/08 18:01:18;;;;;;;;;;;;;;;;;;5091082;28;20368;-69
2023/07/08 18:03:44;;;;;;;;;;;;;;;;;;5089663;28;20276;-68
2023/07/08 18:06:10;;;;;;;;;;;;;;;;;;5090631;28;19916;-68
2023/07/08 18:08:36;;;;;;;;;;;;;;;;;;5090949;28;19908;-68
2023/07/08 18:11:02;;;;;;;;;;;;;;;;;;5090890;28;19935;-68
2023/07/08 18:14:06;;;;;;;;;;;;;;;;;;5152696;27;20279;-69
2023/07/08 18:18:58;;;;;;;;;;;;;;;;;;5153107;27;20385;-67
2023/07/08 18:21:24;;;;;;;;;;;;;;;;;;5152526;27;20310;-69
2023/07/08 18:23:49;;;;;;;;;;;;;;;;;;5153395;27;19907;-68
2023/07/08 18:27:38;;;;;;;;;;;;;;;;;;5111773;27;19919;-66
2023/07/08 18:30:04;;;;;;;;;;;;;;;;;;5111972;28;19912;-67
2023/07/08 18:34:55;;;;;;;;;;;;;;;;;;5152602;27;20014;-66
2023/07/08 18:37:22;;;;;;;;;;;;;;;;;;5152860;27;19957;-67
2023/07/08 18:42:35;;;;;;;;;;;;;;;;;;5091103;27;20311;-68
2023/07/08 18:45:01;;;;;;;;;;;;;;;;;;5091351;28;20006;-68
2023/07/08 18:47:27;;;;;;;;;;;;;;;;;;5091308;28;19909;-68
2023/07/08 18:49:53;;;;;;;;;;;;;;;;;;5090937;28;19916;-68
2023/07/08 18:55:33;;;;;;;;;;;;;;;;;;5111575;27;19916;-68
2023/07/08 18:57:59;;;;;;;;;;;;;;;;;;5111706;28;20360;-67
2023/07/08 19:01:36;;;;;;;;;;;;;;;;;;5091621;28;20395;-68
2023/07/08 19:04:03;;;;;;;;;;;;;;;;;;5090976;28;19917;-69
2023/07/08 19:09:18;;;;;;;;;;;;;;;;;;5153069;27;20005;-69
2023/07/08 19:11:46;;;;;;;;;;;;;;;;;;5134341;27;20344;-68
2023/07/08 19:14:12;;;;;;;;;;;;;;;;;;5152882;27;19908;-68
2023/07/08 19:18:20;;;;;;;;;;;;;;;;;;5111412;27;19912;-68
2023/07/08 19:22:04;;;;;;;;;;;;;;;;;;5091810;28;19922;-67
2023/07/08 19:24:30;;;;;;;;;;;;;;;;;;5091074;28;19995;-68
2023/07/08 19:30:32;;;;;;;;;;;;;;;;;;5111997;27;19916;-68
2023/07/08 19:34:05;;;;;;;;;;;;;;;;;;5111900;27;19912;-67
2023/07/08 19:36:54;;;;;;;;;;;;;;;;;;5112241;27;20294;-67
2023/07/08 19:41:07;;;;;;;;;;;;;;;;;;5152973;27;19998;-67
2023/07/08 19:45:23;;;;;;;;;;;;;;;;;;5111777;27;19923;-67
2023/07/08 19:47:49;;;;;;;;;;;;;;;;;;5111724;28;20295;-69
2023/07/08 19:51:55;;;;;;;;;;;;;;;;;;5152429;27;19918;-67
2023/07/08 19:54:49;;;;;;;;;;;;;;;;;;5153216;27;20351;-68
2023/07/08 19:57:49;;;;;;;;;;;;;;;;;;5091916;27;19917;-67
2023/07/08 20:00:15;;;;;;;;;;;;;;;;;;5091021;28;20011;-67
2023/07/08 20:02:41;;;;;;;;;;;;;;;;;;5091337;28;19999;-67
2023/07/08 20:10:30;;;;;;;;;;;;;;;;;;5091577;28;19913;-68
2023/07/08 20:12:56;;;;;;;;;;;;;;;;;;5091416;28;20320;-68
2023/07/08 20:15:22;;;;;;;;;;;;;;;;;;5090049;28;19971;-67
2023/07/08 20:17:48;;;;;;;;;;;;;;;;;;5091343;28;20372;-67